Airport ID:CYTF
Update Time (UTC):25/03/2019 10:33
Wind Speed (Knots):9
Wind Direction (Magnetic):270
Temperature (°C):-13.4
Dew Point (°C):-22.2
Humidity (%):49
Altimeter (inHg):29.97
Density Altitude (Feet):\\\\
Visibility (Miles):6
Clouds (Hundreds of feet):SCT042 BKN060
Present Weather:
METAR:METAR CYTF 251030Z AUTO 26010KT 10SM FEW043 SCT060 M13/M22 A2997

The data displayed is for advisory purposes only and is not to be used for flight planning or operations.

This page is not automatically refreshed. Reload the page to see current data.